createdAt,value
2023-01-13T00:01:17.803Z,60670.72
2023-01-13T00:03:46.274Z,60670.72
2023-01-13T00:06:16.704Z,60670.72
2023-01-13T00:08:44.632Z,60670.72
2023-01-13T00:11:12.226Z,60670.72
2023-01-13T00:13:39.819Z,60670.72
2023-01-13T00:16:11.219Z,60670.72
2023-01-13T00:18:39.003Z,60670.72
2023-01-13T00:21:18.892Z,60670.72
2023-01-13T00:23:47.595Z,60670.72
2023-01-13T00:26:18.446Z,60670.72
2023-01-13T00:28:46.211Z,60670.72
2023-01-13T00:31:17.800Z,60670.72
2023-01-13T00:33:46.047Z,60670.72
2023-01-13T00:36:15.449Z,60670.72
2023-01-13T00:38:44.810Z,60670.72
2023-01-13T00:41:17.624Z,60670.72
2023-01-13T00:43:45.429Z,60670.72
2023-01-13T00:46:14.984Z,60670.72
2023-01-13T00:48:42.959Z,60670.72
2023-01-13T00:51:17.017Z,60670.72
2023-01-13T00:53:50.758Z,60670.72
2023-01-13T00:56:40.886Z,60670.72
2023-01-13T00:59:13.609Z,60670.72
2023-01-13T01:01:41.767Z,60670.72
2023-01-13T01:04:09.577Z,60670.72
2023-01-13T01:06:37.121Z,60670.72
2023-01-13T01:09:05.107Z,60670.72
2023-01-13T01:11:34.206Z,60670.72
2023-01-13T01:14:03.608Z,60670.72
2023-01-13T01:16:32.639Z,60670.72
2023-01-13T01:19:01.246Z,60670.72
2023-01-13T01:21:29.512Z,60670.72
2023-01-13T01:24:00.597Z,60670.72
2023-01-13T01:26:29.794Z,60670.72
2023-01-13T01:28:57.905Z,60670.72
2023-01-13T01:31:28.015Z,60670.72
2023-01-13T01:33:55.778Z,60670.72
2023-01-13T01:36:26.750Z,60670.72
2023-01-13T01:38:56.500Z,60670.72
2023-01-13T01:41:26.914Z,60670.72
2023-01-13T01:44:02.881Z,60670.72
2023-01-13T01:46:35.169Z,60670.72
2023-01-13T01:49:17.717Z,60670.72
2023-01-13T01:51:59.505Z,60670.72
2023-01-13T01:54:43.640Z,60670.72
2023-01-13T01:57:18.492Z,60670.72
2023-01-13T01:59:47.558Z,60670.72
2023-01-13T02:02:15.834Z,60670.72
2023-01-13T02:04:50.977Z,60670.72
2023-01-13T02:07:22.732Z,60670.72
2023-01-13T02:09:52.957Z,60670.72
2023-01-13T02:12:29.571Z,60670.72
2023-01-13T02:15:07.507Z,60670.72
2023-01-13T02:18:12.415Z,60670.72
2023-01-13T02:20:58.435Z,60670.72
2023-01-13T02:23:56.537Z,60670.72
2023-01-13T02:26:51.805Z,60670.72
2023-01-13T02:29:40.868Z,60670.72
2023-01-13T02:32:19.107Z,60670.72
2023-01-13T02:35:04.149Z,60670.72
2023-01-13T02:37:34.108Z,60670.72
2023-01-13T02:40:25.201Z,60670.72
2023-01-13T02:43:36.986Z,60670.72
2023-01-13T02:46:20.251Z,60670.72
2023-01-13T02:48:52.828Z,60670.72
2023-01-13T02:51:24.102Z,60670.72
2023-01-13T02:54:15.692Z,60670.72
2023-01-13T02:56:47.356Z,60670.72
2023-01-13T02:59:15.002Z,60670.72
2023-01-13T03:01:43.066Z,60670.72
2023-01-13T03:04:12.871Z,60670.72
2023-01-13T03:07:02.303Z,60670.72
2023-01-13T03:09:40.397Z,60670.72
2023-01-13T03:12:15.817Z,60670.72
2023-01-13T03:14:51.899Z,60670.72
2023-01-13T03:17:41.508Z,60670.72
2023-01-13T03:20:22.330Z,60670.72
2023-01-13T03:23:15.477Z,60670.72
2023-01-13T03:26:13.734Z,60670.72
2023-01-13T03:28:51.852Z,60670.72
2023-01-13T03:31:33.198Z,60670.72
2023-01-13T03:34:07.430Z,60670.72
2023-01-13T03:36:38.432Z,60670.72
2023-01-13T03:39:13.525Z,60670.72
2023-01-13T03:41:48.993Z,60670.72
2023-01-13T03:44:27.366Z,60670.72
2023-01-13T03:47:05.163Z,60670.72
2023-01-13T03:50:01.991Z,60670.72
2023-01-13T03:52:34.773Z,60670.72
2023-01-13T03:55:15.580Z,60670.72
2023-01-13T03:57:53.591Z,60670.72
2023-01-13T04:00:30.410Z,60670.72
2023-01-13T04:03:05.398Z,60670.72
2023-01-13T04:05:39.510Z,60670.72
2023-01-13T04:08:21.398Z,60670.72
2023-01-13T04:10:57.829Z,60670.72
2023-01-13T04:13:30.303Z,60670.72
2023-01-13T04:16:00.055Z,60670.72
2023-01-13T04:18:37.941Z,60670.72
2023-01-13T04:21:06.544Z,60670.72
2023-01-13T04:23:34.422Z,60670.72
2023-01-13T04:26:02.021Z,60670.72
2023-01-13T04:28:29.642Z,60670.72
2023-01-13T04:30:57.796Z,60670.72
2023-01-13T04:33:25.348Z,60670.72
2023-01-13T04:35:52.883Z,60670.72
2023-01-13T04:38:21.786Z,60670.72
2023-01-13T04:40:49.505Z,60670.72
2023-01-13T04:43:17.241Z,60670.72
2023-01-13T04:45:45.067Z,60670.72
2023-01-13T04:48:13.325Z,60670.72
2023-01-13T04:50:43.181Z,60670.72
2023-01-13T04:53:10.923Z,60670.72
2023-01-13T04:55:39.879Z,60670.72
2023-01-13T04:58:09.916Z,60670.72
2023-01-13T05:00:39.307Z,60670.72
2023-01-13T05:03:07.429Z,60670.72
2023-01-13T05:05:39.745Z,60670.72
2023-01-13T05:08:09.227Z,60670.72
2023-01-13T05:10:37.878Z,60670.72
2023-01-13T05:13:24.282Z,60670.72
2023-01-13T05:16:11.425Z,60670.72
2023-01-13T05:18:38.986Z,60670.72
2023-01-13T05:21:26.560Z,60670.72
2023-01-13T05:24:12.337Z,60670.72
2023-01-13T05:26:39.835Z,60670.72
2023-01-13T05:29:07.946Z,60670.72
2023-01-13T05:31:35.834Z,60670.72
2023-01-13T05:34:03.526Z,60670.72
2023-01-13T05:36:31.051Z,60670.72
2023-01-13T05:38:58.779Z,60670.72
2023-01-13T05:41:45.130Z,60670.72
2023-01-13T05:44:12.593Z,60670.72
2023-01-13T05:46:41.973Z,60670.72
2023-01-13T05:49:13.739Z,60670.72
2023-01-13T05:51:42.317Z,60670.72
2023-01-13T05:54:09.873Z,60670.72
2023-01-13T05:56:37.438Z,60670.72
2023-01-13T05:59:05.134Z,60670.72
2023-01-13T06:01:32.907Z,60670.72
2023-01-13T06:04:01.136Z,60670.72
2023-01-13T06:06:28.674Z,60670.72
2023-01-13T06:08:56.140Z,60670.72
2023-01-13T06:11:24.065Z,60670.72
2023-01-13T06:13:51.607Z,60670.72
2023-01-13T06:16:19.168Z,60670.72
2023-01-13T06:18:46.759Z,60670.72
2023-01-13T06:21:14.243Z,60670.72
2023-01-13T06:23:42.317Z,60670.72
2023-01-13T06:26:15.972Z,60670.72
2023-01-13T06:28:43.480Z,60670.72
2023-01-13T06:31:11.757Z,60670.72
2023-01-13T06:33:44.979Z,60670.72
2023-01-13T06:36:18.761Z,60670.72
2023-01-13T06:38:52.024Z,60670.72
2023-01-13T06:41:41.019Z,60670.72
2023-01-13T06:44:08.583Z,60670.72
2023-01-13T06:46:36.409Z,60670.72
2023-01-13T06:49:04.121Z,60670.72
2023-01-13T06:51:31.683Z,60670.72
2023-01-13T06:53:59.336Z,60670.72
2023-01-13T06:56:26.936Z,60670.72
2023-01-13T06:58:54.526Z,60670.72
2023-01-13T07:01:22.342Z,60670.72
2023-01-13T07:05:54.980Z,99275.00
2023-01-13T07:08:24.623Z,99271.59
2023-01-13T07:10:53.113Z,99274.19
2023-01-13T07:13:39.449Z,99276.19
2023-01-13T07:16:08.524Z,99272.38
2023-01-13T07:18:36.719Z,99273.81
2023-01-13T07:21:07.575Z,99266.19
2023-01-13T07:23:39.885Z,99267.50
2023-01-13T07:26:09.292Z,99262.97
2023-01-13T07:28:37.492Z,99265.88
2023-01-13T07:31:06.071Z,99264.22
2023-01-13T07:33:33.672Z,99266.00
2023-01-13T07:36:04.390Z,99269.84
2023-01-13T07:38:33.416Z,99269.03
2023-01-13T07:41:20.291Z,99266.72
2023-01-13T07:43:49.009Z,99263.34
2023-01-13T07:46:17.143Z,99269.56
2023-01-13T07:48:46.865Z,99266.03
2023-01-13T07:51:15.333Z,99275.25
2023-01-13T07:53:43.018Z,99271.59
2023-01-13T07:56:10.524Z,99274.06
2023-01-13T07:58:38.609Z,99285.22
2023-01-13T08:01:14.136Z,99282.13
2023-01-13T08:03:41.915Z,99290.75
2023-01-13T08:06:10.867Z,99299.53
2023-01-13T08:08:39.115Z,99299.53
2023-01-13T08:11:08.444Z,99298.31
2023-01-13T08:13:36.572Z,99298.09
2023-01-13T08:16:07.981Z,99295.00
2023-01-13T08:18:36.689Z,99304.59
2023-01-13T08:21:11.089Z,99302.19
2023-01-13T08:23:39.921Z,99288.91
2023-01-13T08:26:12.304Z,99292.38
2023-01-13T08:28:42.873Z,99290.97
2023-01-13T08:31:15.925Z,99284.09
2023-01-13T08:33:43.920Z,99287.00
2023-01-13T08:36:12.495Z,99289.50
2023-01-13T08:38:41.184Z,99299.41
2023-01-13T08:41:14.355Z,99313.03
2023-01-13T08:43:41.893Z,99317.59
2023-01-13T08:46:09.630Z,99311.00
2023-01-13T08:48:37.237Z,99311.50
2023-01-13T08:51:07.592Z,99318.63
2023-01-13T08:53:35.345Z,99325.56
2023-01-13T08:56:07.671Z,99327.81
2023-01-13T08:58:35.482Z,99324.59
2023-01-13T09:01:06.917Z,99321.44
2023-01-13T09:03:34.697Z,99325.09
2023-01-13T09:06:02.474Z,99325.78
2023-01-13T09:08:30.016Z,99320.03
2023-01-13T09:10:58.011Z,99320.09
2023-01-13T09:13:25.955Z,99319.63
2023-01-13T09:15:56.747Z,99296.41
2023-01-13T09:18:24.565Z,99300.31
2023-01-13T09:20:52.215Z,99297.78
2023-01-13T09:23:19.885Z,99304.56
2023-01-13T09:25:49.084Z,99307.16
2023-01-13T09:28:16.647Z,99306.16
2023-01-13T09:30:44.211Z,99317.47
2023-01-13T09:33:29.955Z,99304.44
2023-01-13T09:35:59.289Z,99325.81
2023-01-13T09:38:27.869Z,99328.66
2023-01-13T09:40:55.856Z,99319.75
2023-01-13T09:43:55.610Z,99315.00
2023-01-13T09:46:53.076Z,99318.59
2023-01-13T09:49:28.019Z,99320.50
2023-01-13T09:52:03.017Z,99311.00
2023-01-13T09:54:49.740Z,99312.69
2023-01-13T09:57:19.258Z,99308.97
2023-01-13T09:59:48.005Z,99299.44
2023-01-13T10:02:54.935Z,99301.53
2023-01-13T10:05:41.187Z,99310.25
2023-01-13T10:08:24.116Z,99302.63
2023-01-13T10:11:24.125Z,99305.91
2023-01-13T10:13:59.683Z,99303.56
2023-01-13T10:17:04.452Z,99303.72
2023-01-13T10:19:50.804Z,99308.19
2023-01-13T10:22:18.329Z,99314.66
2023-01-13T10:24:57.583Z,99310.66
2023-01-13T10:27:31.130Z,99304.50
2023-01-13T10:29:58.851Z,99299.63
2023-01-13T10:32:26.469Z,99294.16
2023-01-13T10:34:57.392Z,99293.41
2023-01-13T10:37:28.033Z,99301.53
2023-01-13T10:39:57.815Z,99295.13
2023-01-13T10:42:25.571Z,99286.13
2023-01-13T10:44:56.398Z,99286.88
2023-01-13T10:47:33.646Z,99275.19
2023-01-13T10:50:09.753Z,99264.81
2023-01-13T10:52:43.560Z,99258.78
2023-01-13T10:55:30.513Z,99258.94
2023-01-13T10:58:18.914Z,99250.94
2023-01-13T11:00:49.065Z,99248.25
2023-01-13T11:03:22.695Z,99250.00
2023-01-13T11:05:53.437Z,99247.28
2023-01-13T11:08:24.865Z,99243.94
2023-01-13T11:10:57.805Z,99243.38
2023-01-13T11:13:37.363Z,99233.75
2023-01-13T11:16:14.314Z,99225.50
2023-01-13T11:19:02.446Z,99221.63
2023-01-13T11:21:47.108Z,99222.75
2023-01-13T11:24:20.406Z,99225.34
2023-01-13T11:26:53.674Z,99212.16
2023-01-13T11:29:30.228Z,99220.25
2023-01-13T11:32:12.176Z,99217.50
2023-01-13T11:34:41.924Z,99222.75
2023-01-13T11:37:17.322Z,99219.44
2023-01-13T11:40:25.962Z,99219.19
2023-01-13T11:43:04.401Z,99217.38
2023-01-13T11:45:49.504Z,99219.72
2023-01-13T11:48:21.801Z,99207.41
2023-01-13T11:51:07.589Z,99212.00
2023-01-13T11:53:48.348Z,99198.13
2023-01-13T11:56:53.277Z,99188.91
2023-01-13T11:59:39.448Z,99185.06
2023-01-13T12:02:25.680Z,99172.97
2023-01-13T12:05:19.202Z,99163.84
2023-01-13T12:07:56.310Z,99166.63
2023-01-13T12:10:48.348Z,99156.94
2023-01-13T12:13:44.143Z,99157.50
2023-01-13T12:16:21.634Z,99142.19
2023-01-13T12:19:01.421Z,99145.34
2023-01-13T12:21:32.860Z,99135.34
2023-01-13T12:24:23.174Z,99141.66
2023-01-13T12:27:55.149Z,99145.53
2023-01-13T12:30:39.236Z,99158.47
2023-01-13T12:33:25.330Z,99147.69
2023-01-13T12:36:07.247Z,99153.03
2023-01-13T12:38:48.028Z,99148.84
2023-01-13T12:42:03.704Z,99146.22
2023-01-13T12:44:31.194Z,99141.81
2023-01-13T12:46:59.768Z,99142.63
2023-01-13T12:49:34.020Z,99141.16
2023-01-13T12:52:12.674Z,99134.88
2023-01-13T12:54:40.422Z,99134.91
2023-01-13T12:57:16.879Z,99138.91
2023-01-13T13:00:05.714Z,99128.91
2023-01-13T13:02:36.376Z,99139.84
2023-01-13T13:05:22.744Z,99139.78
2023-01-13T13:08:07.167Z,99140.50
2023-01-13T13:10:38.935Z,99142.41
2023-01-13T13:13:20.335Z,99140.22
2023-01-13T13:15:50.482Z,99142.53
2023-01-13T13:18:17.938Z,99147.44
2023-01-13T13:21:04.514Z,99149.28
2023-01-13T13:23:39.352Z,99142.88
2023-01-13T13:26:09.607Z,99151.41
2023-01-13T13:28:42.017Z,99139.81
2023-01-13T13:31:45.161Z,99146.34
2023-01-13T13:34:31.470Z,99161.09
2023-01-13T13:37:11.143Z,99170.38
2023-01-13T13:40:01.258Z,99170.63
2023-01-13T13:42:55.552Z,99166.88
2023-01-13T13:45:44.457Z,99176.75
2023-01-13T13:48:30.962Z,99189.09
2023-01-13T13:51:04.732Z,99188.91
2023-01-13T13:53:40.245Z,99190.63
2023-01-13T13:56:20.882Z,99193.31
2023-01-13T13:58:49.681Z,99192.19
2023-01-13T14:01:38.760Z,99184.75
2023-01-13T14:04:14.675Z,99188.34
2023-01-13T14:06:58.984Z,99192.31
2023-01-13T14:09:28.810Z,99195.78
2023-01-13T14:12:06.619Z,99193.56
2023-01-13T14:14:34.130Z,99190.41
2023-01-13T14:17:01.686Z,99201.91
2023-01-13T14:19:35.403Z,99196.13
2023-01-13T14:22:05.548Z,99200.66
2023-01-13T14:24:34.131Z,99203.03
2023-01-13T14:27:16.359Z,99198.16
2023-01-13T14:29:45.697Z,99203.94
2023-01-13T14:32:18.439Z,99201.09
2023-01-13T14:34:46.577Z,99200.91
2023-01-13T14:37:35.287Z,99197.31
2023-01-13T14:40:06.629Z,99190.97
2023-01-13T14:42:35.571Z,99190.38
2023-01-13T14:45:03.585Z,99194.38
2023-01-13T14:47:33.963Z,99202.03
2023-01-13T14:50:10.748Z,99199.16
2023-01-13T14:52:50.351Z,99187.53
2023-01-13T14:55:32.476Z,99186.81
2023-01-13T14:58:21.679Z,99185.94
2023-01-13T15:01:12.598Z,99185.31
2023-01-13T15:03:42.088Z,99191.88
2023-01-13T15:06:25.581Z,99196.03
2023-01-13T15:08:53.382Z,99184.34
2023-01-13T15:11:25.866Z,99192.88
2023-01-13T15:13:58.664Z,99183.38
2023-01-13T15:16:27.776Z,99172.91
2023-01-13T15:18:57.954Z,99174.72
2023-01-13T15:21:25.621Z,99168.47
2023-01-13T15:23:53.239Z,99173.19
2023-01-13T15:26:24.197Z,99176.25
2023-01-13T15:28:53.884Z,99181.00
2023-01-13T15:31:22.803Z,99181.53
2023-01-13T15:33:50.951Z,99178.50
2023-01-13T15:36:31.029Z,99179.38
2023-01-13T15:39:00.382Z,99189.97
2023-01-13T15:41:46.640Z,99193.06
2023-01-13T15:44:40.464Z,99204.41
2023-01-13T15:47:09.511Z,99204.97
2023-01-13T15:49:45.192Z,99207.16
2023-01-13T15:52:24.534Z,99201.41
2023-01-13T15:54:53.976Z,99200.28
2023-01-13T15:57:25.130Z,99203.13
2023-01-13T15:59:55.830Z,99200.81
2023-01-13T16:02:24.377Z,99205.47
2023-01-13T16:04:54.494Z,99196.94
2023-01-13T16:07:24.267Z,99201.94
2023-01-13T16:09:52.779Z,99197.09
2023-01-13T16:12:20.590Z,99188.31
2023-01-13T16:14:48.118Z,99194.78
2023-01-13T16:17:20.236Z,99195.25
2023-01-13T16:19:49.953Z,99197.09
2023-01-13T16:22:18.303Z,99197.47
2023-01-13T16:24:45.782Z,99196.78
2023-01-13T16:27:17.342Z,99187.47
2023-01-13T16:29:46.704Z,99193.56
2023-01-13T16:32:14.668Z,99193.75
2023-01-13T16:34:42.866Z,99196.50
2023-01-13T16:37:24.880Z,99197.66
2023-01-13T16:39:53.943Z,99192.34
2023-01-13T16:42:21.754Z,99193.34
2023-01-13T16:44:50.705Z,99191.34
2023-01-13T16:47:18.830Z,99185.41
2023-01-13T16:49:48.965Z,99185.66
2023-01-13T16:52:16.478Z,99179.84
2023-01-13T16:54:44.005Z,99183.88
2023-01-13T16:57:13.242Z,99186.09
2023-01-13T16:59:40.929Z,99187.13
2023-01-13T17:02:14.747Z,99180.59
2023-01-13T17:04:43.493Z,99180.75
2023-01-13T17:07:16.681Z,99185.47
2023-01-13T17:09:44.369Z,99195.34
2023-01-13T17:12:11.971Z,99197.59
2023-01-13T17:14:40.080Z,99194.31
2023-01-13T17:17:21.108Z,99203.50
2023-01-13T17:19:52.701Z,99206.53
2023-01-13T17:22:21.276Z,99210.69
2023-01-13T17:24:48.989Z,99216.13
2023-01-13T17:27:18.584Z,99216.56
2023-01-13T17:29:47.517Z,99214.31
2023-01-13T17:32:17.041Z,99210.34
2023-01-13T17:34:45.252Z,99212.13
2023-01-13T17:37:14.552Z,99213.66
2023-01-13T17:39:44.493Z,99215.31
2023-01-13T17:42:13.321Z,99218.19
2023-01-13T17:44:41.531Z,99220.81
2023-01-13T17:47:09.101Z,99216.38
2023-01-13T17:49:36.614Z,99211.84
2023-01-13T17:52:04.639Z,99205.66
2023-01-13T17:54:32.154Z,99209.78
2023-01-13T17:56:59.651Z,99213.34
2023-01-13T17:59:27.299Z,99211.16
2023-01-13T18:01:55.057Z,99212.97
2023-01-13T18:04:27.168Z,99215.28
2023-01-13T18:06:56.752Z,99223.59
2023-01-13T18:09:24.740Z,99224.25
2023-01-13T18:11:52.712Z,99232.63
2023-01-13T18:14:22.543Z,99228.41
2023-01-13T18:16:51.206Z,99226.19
2023-01-13T18:19:37.416Z,99226.31
2023-01-13T18:22:24.197Z,99231.53
2023-01-13T18:25:10.702Z,99230.72
2023-01-13T18:27:40.981Z,99235.97
2023-01-13T18:30:12.327Z,99230.19
2023-01-13T18:32:39.879Z,99232.78
2023-01-13T18:35:10.344Z,99235.69
2023-01-13T18:37:40.559Z,99237.78
2023-01-13T18:40:11.253Z,99239.00
2023-01-13T18:42:51.394Z,99238.84
2023-01-13T18:45:24.786Z,99243.78
2023-01-13T18:47:54.491Z,99235.41
2023-01-13T18:50:23.856Z,99229.63
2023-01-13T18:52:52.143Z,99236.66
2023-01-13T18:55:20.389Z,99235.13
2023-01-13T18:57:48.352Z,99237.06
2023-01-13T19:00:20.045Z,99242.84
2023-01-13T19:02:50.710Z,99245.75
2023-01-13T19:05:18.674Z,99250.00
2023-01-13T19:07:53.679Z,99255.09
2023-01-13T19:10:23.331Z,99252.59
2023-01-13T19:12:51.154Z,99251.66
2023-01-13T19:15:18.877Z,99244.94
2023-01-13T19:17:46.776Z,99250.00
2023-01-13T19:20:18.009Z,99257.47
2023-01-13T19:22:53.717Z,99257.69
2023-01-13T19:25:21.485Z,99273.78
2023-01-13T19:27:49.283Z,99283.03
2023-01-13T19:30:18.298Z,99284.03
2023-01-13T19:32:45.958Z,99284.00
2023-01-13T19:35:17.398Z,99285.81
2023-01-13T19:37:45.647Z,99288.25
2023-01-13T19:40:16.382Z,99302.03
2023-01-13T19:43:03.433Z,99309.44
2023-01-13T19:45:34.992Z,99315.53
2023-01-13T19:48:05.020Z,99314.72
2023-01-13T19:50:40.438Z,99325.00
2023-01-13T19:53:15.785Z,99330.81
2023-01-13T19:55:45.192Z,99313.22
2023-01-13T19:58:12.663Z,99335.06
2023-01-13T20:00:47.618Z,99330.97
2023-01-13T20:03:20.802Z,99322.97
2023-01-13T20:05:48.412Z,99331.63
2023-01-13T20:08:16.208Z,99340.28
2023-01-13T20:10:46.175Z,99332.84
2023-01-13T20:13:15.503Z,99346.09
2023-01-13T20:15:43.984Z,99343.88
2023-01-13T20:18:11.608Z,99329.88
2023-01-13T20:20:41.348Z,99318.72
2023-01-13T20:23:09.595Z,99313.22
2023-01-13T20:25:37.242Z,99318.13
2023-01-13T20:28:06.575Z,99319.22
2023-01-13T20:30:34.133Z,99312.25
2023-01-13T20:33:03.267Z,99297.94
2023-01-13T20:35:30.913Z,99316.19
2023-01-13T20:37:58.494Z,99314.19
2023-01-13T20:40:26.204Z,99305.16
2023-01-13T20:42:53.998Z,99315.31
2023-01-13T20:45:23.308Z,99306.03
2023-01-13T20:47:51.308Z,99316.19
2023-01-13T20:50:19.695Z,99316.34
2023-01-13T20:52:47.709Z,99313.84
2023-01-13T20:55:15.446Z,99315.75
2023-01-13T20:57:43.482Z,99311.41
2023-01-13T21:00:13.584Z,99305.78
2023-01-13T21:02:42.036Z,99304.81
2023-01-13T21:05:10.208Z,99309.38
2023-01-13T21:07:37.994Z,99307.38
2023-01-13T21:10:07.961Z,99312.34
2023-01-13T21:12:54.078Z,99313.28
2023-01-13T21:15:22.765Z,99312.44
2023-01-13T21:18:10.278Z,99302.00
2023-01-13T21:20:39.439Z,99298.97
2023-01-13T21:23:08.401Z,99280.16
2023-01-13T21:25:39.474Z,99275.34
2023-01-13T21:28:09.495Z,99279.16
2023-01-13T21:30:38.393Z,99285.75
2023-01-13T21:33:06.443Z,99273.53
2023-01-13T21:35:37.480Z,99273.22
2023-01-13T21:38:05.061Z,99272.41
2023-01-13T21:40:32.865Z,99272.13
2023-01-13T21:43:19.438Z,99268.88
2023-01-13T21:46:05.714Z,99258.53
2023-01-13T21:48:33.401Z,99267.59
2023-01-13T21:51:03.428Z,99272.28
2023-01-13T21:53:30.948Z,99277.22
2023-01-13T21:55:58.516Z,99282.75
2023-01-13T21:58:26.018Z,99291.97
2023-01-13T22:00:54.188Z,99304.97
2023-01-13T22:03:21.897Z,99326.25
2023-01-13T22:05:55.193Z,99338.59
2023-01-13T22:08:22.722Z,99346.16
2023-01-13T22:10:57.264Z,99362.88
2023-01-13T22:13:44.649Z,99362.06
2023-01-13T22:16:12.240Z,99350.28
2023-01-13T22:18:39.771Z,99364.47
2023-01-13T22:21:07.542Z,99361.47
2023-01-13T22:23:35.243Z,99367.50
2023-01-13T22:26:04.323Z,99362.03
2023-01-13T22:28:39.947Z,99357.81
2023-01-13T22:31:13.184Z,99373.72
2023-01-13T22:33:41.913Z,99375.16
2023-01-13T22:36:10.320Z,99374.94
2023-01-13T22:38:39.062Z,99377.56
2023-01-13T22:41:09.098Z,99380.03
2023-01-13T22:43:38.095Z,99376.97
2023-01-13T22:46:11.290Z,99369.47
2023-01-13T22:48:41.177Z,99370.59
2023-01-13T22:51:10.748Z,99366.13
2023-01-13T22:53:39.026Z,99370.75
2023-01-13T22:56:06.929Z,99366.28
2023-01-13T22:58:34.442Z,99350.69
2023-01-13T23:01:13.703Z,99351.00
2023-01-13T23:03:42.463Z,99341.88
2023-01-13T23:06:10.056Z,99344.78
2023-01-13T23:08:37.722Z,99336.75
2023-01-13T23:11:09.688Z,99326.50
2023-01-13T23:13:39.334Z,99317.28
2023-01-13T23:16:12.298Z,99316.72
2023-01-13T23:18:42.589Z,99313.00
2023-01-13T23:21:12.907Z,99318.50
2023-01-13T23:23:40.494Z,99310.00
2023-01-13T23:26:08.855Z,99320.19
2023-01-13T23:28:37.395Z,99314.28
2023-01-13T23:31:20.521Z,99301.50
2023-01-13T23:33:48.939Z,99299.94
2023-01-13T23:36:23.407Z,99310.50
2023-01-13T23:38:51.978Z,99305.84
2023-01-13T23:41:24.848Z,99302.16
2023-01-13T23:43:58.355Z,99300.88
2023-01-13T23:46:26.704Z,99298.75
2023-01-13T23:48:55.513Z,99303.94
2023-01-13T23:51:23.448Z,99316.13
2023-01-13T23:53:51.724Z,99317.63
2023-01-13T23:56:22.326Z,99317.44
2023-01-13T23:58:51.087Z,99318.25
